Terminal Aerodrome Forecast
Issued by NWS

Home | Current Version | Previous Version | Text Only | Print | Product List | Glossary On
Versions: 1 2 3 4 5 6 7 8 9 10 11 12 13
000
FTAK31 PAJN 281723
TAFAJN
TAF
PAJN 281723Z 2818/2918 12013KT P6SM -RA FEW004 BKN040 OVC070
      WS020/15025KT
     FM282100 11014G24KT 6SM -RA FEW005 BKN025 OVC040 WS020/15025KT
     FM290400 12011KT P6SM -SHRA SCT020 OVC035
     FM291100 10010KT P6SM VCSH SCT020 OVC040
     FM291400 10011KT P6SM -SHRA SCT020 OVC030=

USA.gov is the U.S. government's official web portal to all federal, state and local government web resources and services.